Time;durP1;ratioP1;P1;durP2;ratioP2;P2;SDS_P1;SDS_P2;PMS_P1;PMS_P2;Temp;Humidity;BMP_temperature;BMP_pressure;BME280_temperature;BME280_humidity;BME280_pressure;Samples;Min_cycle;Max_cycle;Signal;HPM_P1;HPM_P2
2022/04/01 00:05:30;;;;;;;4.90;4.50;;;;;;;;;;12173481;29;20482;-78
2022/04/01 00:11:32;;;;;;;6.25;5.75;;;;;;;;;;12171360;29;20043;-78
2022/04/01 00:17:34;;;;;;;6.13;5.55;;;;;;;;;;12158267;29;20040;-77
2022/04/01 00:23:36;;;;;;;6.00;5.60;;;;;;;;;;12157613;29;20032;-78
2022/04/01 00:29:37;;;;;;;6.60;6.10;;;;;;;;;;12171809;29;20036;-78
2022/04/01 00:35:39;;;;;;;4.85;4.40;;;;;;;;;;12159242;29;20510;-78
2022/04/01 00:41:44;;;;;;;5.10;4.70;;;;;;;;;;12252959;29;20400;-78
2022/04/01 00:47:46;;;;;;;6.18;5.68;;;;;;;;;;12253238;29;20039;-78
2022/04/01 00:53:48;;;;;;;5.80;5.33;;;;;;;;;;12240239;29;20051;-78
2022/04/01 00:59:50;;;;;;;6.75;6.30;;;;;;;;;;12246335;29;20036;-78
2022/04/01 01:05:52;;;;;;;7.33;6.77;;;;;;;;;;12246399;29;20524;-78
2022/04/01 01:11:54;;;;;;;6.22;5.72;;;;;;;;;;12245379;29;20047;-78
2022/04/01 01:17:56;;;;;;;7.77;7.13;;;;;;;;;;12244985;29;20040;-78
2022/04/01 01:24:00;;;;;;;6.88;6.38;;;;;;;;;;12244354;29;20036;-78
2022/04/01 01:30:03;;;;;;;6.22;5.82;;;;;;;;;;12244501;29;20047;-78
2022/04/01 01:36:05;;;;;;;6.18;5.68;;;;;;;;;;12244666;29;20063;-78
2022/04/01 01:42:10;;;;;;;6.38;5.88;;;;;;;;;;12268347;29;20043;-78
2022/04/01 01:48:12;;;;;;;5.10;4.70;;;;;;;;;;12243871;29;20048;-78
2022/04/01 02:00:34;;;;;;;5.43;5.03;;;;;;;;;;12260367;29;20051;-78
2022/04/01 02:06:36;;;;;;;5.47;5.07;;;;;;;;;;12242141;29;20401;-78
2022/04/01 02:12:38;;;;;;;6.37;5.90;;;;;;;;;;12242651;29;20063;-78
2022/04/01 02:18:40;;;;;;;5.63;5.13;;;;;;;;;;12271304;29;20278;-78
2022/04/01 02:24:42;;;;;;;5.67;5.17;;;;;;;;;;12244065;29;20043;-78
2022/04/01 02:30:45;;;;;;;4.13;3.80;;;;;;;;;;12242071;29;20421;-78
2022/04/01 02:37:05;;;;;;;7.72;7.10;;;;;;;;;;12259159;29;20071;-78
2022/04/01 02:43:07;;;;;;;7.20;6.50;;;;;;;;;;12241151;29;20046;-78
2022/04/01 02:49:15;;;;;;;6.63;6.13;;;;;;;;;;12241017;29;20513;-78
2022/04/01 02:55:45;;;;;;;7.30;6.65;;;;;;;;;;12253080;29;20548;-78
2022/04/01 03:01:47;;;;;;;6.15;5.65;;;;;;;;;;12257554;29;20040;-78
2022/04/01 03:07:49;;;;;;;5.75;5.35;;;;;;;;;;12241342;29;20389;-78
2022/04/01 03:13:51;;;;;;;6.07;5.47;;;;;;;;;;12239882;29;20043;-79
2022/04/01 03:20:35;;;;;;;6.70;6.20;;;;;;;;;;12256605;29;20032;-78
2022/04/01 03:26:38;;;;;;;6.30;5.80;;;;;;;;;;12239646;29;20051;-78
2022/04/01 03:32:41;;;;;;;6.10;5.70;;;;;;;;;;12252841;29;20051;-79
2022/04/01 03:38:43;;;;;;;;;;;;;;;;;;12251909;29;20063;-78
2022/04/01 03:44:51;;;;;;;6.22;5.70;;;;;;;;;;12238596;29;19915;-78
2022/04/01 03:51:17;;;;;;;6.05;5.60;;;;;;;;;;12254837;29;20050;-78
2022/04/01 03:57:21;;;;;;;7.05;6.45;;;;;;;;;;12238151;29;20477;-78
2022/04/01 04:03:52;;;;;;;6.20;5.70;;;;;;;;;;12242193;29;20500;-78
2022/04/01 04:09:54;;;;;;;6.85;6.25;;;;;;;;;;12237823;29;20449;-79
2022/04/01 04:16:10;;;;;;;6.43;5.93;;;;;;;;;;12237691;29;20074;-78
2022/04/01 04:22:13;;;;;;;5.30;4.90;;;;;;;;;;12237634;29;20531;-78
2022/04/01 04:28:25;;;;;;;5.13;4.72;;;;;;;;;;12236741;29;20040;-77
2022/04/01 04:34:44;;;;;;;5.13;4.72;;;;;;;;;;12257749;29;20401;-78
2022/04/01 04:40:46;;;;;;;7.47;6.88;;;;;;;;;;12236872;29;20067;-78
2022/04/01 04:46:48;;;;;;;6.68;6.18;;;;;;;;;;12236656;29;20047;-78
2022/04/01 04:52:55;;;;;;;7.18;6.53;;;;;;;;;;12238522;29;20044;-78
2022/04/01 04:58:57;;;;;;;7.15;6.55;;;;;;;;;;12236470;29;20040;-78
2022/04/01 05:05:09;;;;;;;8.13;7.33;;;;;;;;;;12253260;28;20397;-78
2022/04/01 05:11:48;;;;;;;7.43;6.73;;;;;;;;;;12253131;29;20039;-78
2022/04/01 05:18:12;;;;;;;8.00;7.40;;;;;;;;;;12236626;29;20044;-77
2022/04/01 05:24:15;;;;;;;6.47;5.88;;;;;;;;;;12251439;29;20617;-78
2022/04/01 05:30:20;;;;;;;8.43;7.63;;;;;;;;;;12243509;29;20039;-78
2022/04/01 05:36:26;;;;;;;8.30;7.50;;;;;;;;;;12234975;29;20064;-81
2022/04/01 05:42:28;;;;;;;4.18;3.88;;;;;;;;;;12256636;28;20050;-79
2022/04/01 05:48:51;;;;;;;10.93;9.83;;;;;;;;;;12270410;29;20043;-77
2022/04/01 05:54:52;;;;;;;9.73;8.83;;;;;;;;;;12275006;28;20043;-78
2022/04/01 06:01:04;;;;;;;10.80;9.80;;;;;;;;;;12290826;28;20039;-77
2022/04/01 06:07:16;;;;;;;10.20;9.20;;;;;;;;;;12277820;28;20046;-76
2022/04/01 06:13:24;;;;;;;21.58;18.80;;;;;;;;;;12279947;29;20424;-78
2022/04/01 06:19:50;;;;;;;10.18;8.85;;;;;;;;;;12233075;28;20048;-77
2022/04/01 06:26:01;;;;;;;11.57;10.57;;;;;;;;;;12256699;28;20386;-77
2022/04/01 06:32:09;;;;;;;9.70;8.77;;;;;;;;;;12253637;28;20031;-78
2022/04/01 06:38:13;;;;;;;7.15;6.45;;;;;;;;;;12266199;29;20082;-77
2022/04/01 06:44:15;;;;;;;8.55;7.70;;;;;;;;;;12269045;29;20035;-77
2022/04/01 06:50:38;;;;;;;8.18;7.10;;;;;;;;;;12257962;29;20044;-78
2022/04/01 06:56:58;;;;;;;7.95;7.07;;;;;;;;;;12278746;28;20515;-78
2022/04/01 07:03:01;;;;;;;8.50;7.70;;;;;;;;;;12266332;28;20028;-78
2022/04/01 07:09:02;;;;;;;6.50;5.90;;;;;;;;;;12276465;28;20400;-78
2022/04/01 07:15:07;;;;;;;7.75;6.38;;;;;;;;;;12263914;28;20500;-78
2022/04/01 07:21:09;;;;;;;5.22;4.72;;;;;;;;;;12260484;29;20031;-78
2022/04/01 07:27:11;;;;;;;6.70;6.07;;;;;;;;;;12292594;28;20039;-79
2022/04/01 07:33:12;;;;;;;7.97;7.17;;;;;;;;;;12265758;29;20039;-78
2022/04/01 07:39:15;;;;;;;6.15;5.55;;;;;;;;;;12281906;28;20043;-78
2022/04/01 07:45:18;;;;;;;8.02;7.22;;;;;;;;;;12292326;29;20043;-78
2022/04/01 07:51:19;;;;;;;8.57;7.70;;;;;;;;;;12285774;29;20389;-78
2022/04/01 07:57:21;;;;;;;6.55;5.95;;;;;;;;;;12270111;28;20043;-78
2022/04/01 08:03:23;;;;;;;6.82;6.13;;;;;;;;;;12281133;28;20538;-77
2022/04/01 08:09:25;;;;;;;6.97;6.28;;;;;;;;;;12274703;28;20027;-77
2022/04/01 08:15:27;;;;;;;7.47;5.40;;;;;;;;;;12266430;28;20039;-77
2022/04/01 08:21:28;;;;;;;4.53;4.13;;;;;;;;;;12305713;28;20396;-79
2022/04/01 08:27:30;;;;;;;3.65;3.35;;;;;;;;;;12264077;28;20623;-80
2022/04/01 08:33:32;;;;;;;4.18;3.80;;;;;;;;;;12275388;29;20047;-78
2022/04/01 08:39:34;;;;;;;2.83;2.60;;;;;;;;;;12265568;28;20046;-80
2022/04/01 08:45:37;;;;;;;4.15;2.83;;;;;;;;;;12282279;28;20038;-79
2022/04/01 08:51:39;;;;;;;3.70;3.40;;;;;;;;;;12282199;28;20046;-79
2022/04/01 08:57:43;;;;;;;5.28;4.65;;;;;;;;;;12270682;28;20401;-82
2022/04/01 09:03:45;;;;;;;6.32;5.50;;;;;;;;;;12289676;28;20046;-81
2022/04/01 09:09:46;;;;;;;3.72;3.30;;;;;;;;;;12282233;28;20050;-82
2022/04/01 09:15:48;;;;;;;5.65;4.43;;;;;;;;;;12288270;28;20036;-77
2022/04/01 09:21:50;;;;;;;5.53;5.03;;;;;;;;;;12270312;28;20034;-82
2022/04/01 09:27:53;;;;;;;4.78;4.05;;;;;;;;;;12289462;28;20529;-80
2022/04/01 09:33:54;;;;;;;;;;;;;;;;;;12287558;28;20516;-80
2022/04/01 09:39:59;;;;;;;4.22;3.83;;;;;;;;;;12289736;28;19919;-83
2022/04/01 09:46:04;;;;;;;3.95;3.47;;;;;;;;;;12263602;28;20039;-81
2022/04/01 09:52:08;;;;;;;5.30;4.80;;;;;;;;;;12277282;28;20031;-78
2022/04/01 09:58:10;;;;;;;4.57;4.05;;;;;;;;;;12260268;28;20055;-79
2022/04/01 10:04:13;;;;;;;5.17;4.67;;;;;;;;;;12281172;29;20043;-77
2022/04/01 10:10:15;;;;;;;;;;;;;;;;;;12271298;28;20381;-76
2022/04/01 10:16:17;;;;;;;4.25;3.90;;;;;;;;;;12298367;28;19929;-76
2022/04/01 10:22:19;;;;;;;5.05;4.55;;;;;;;;;;12268710;29;20537;-77
2022/04/01 10:28:21;;;;;;;4.13;3.83;;;;;;;;;;12274914;29;20401;-76
2022/04/01 10:34:24;;;;;;;5.63;4.63;;;;;;;;;;12276446;28;20510;-77
2022/04/01 10:40:31;;;;;;;5.72;5.22;;;;;;;;;;12264997;28;20525;-77
2022/04/01 10:46:38;;;;;;;6.30;5.38;;;;;;;;;;12294741;28;20043;-78
2022/04/01 10:52:39;;;;;;;7.25;6.40;;;;;;;;;;12299115;28;20034;-77
2022/04/01 10:59:00;;;;;;;6.20;4.87;;;;;;;;;;12289446;28;20047;-78
2022/04/01 11:05:21;;;;;;;7.78;5.93;;;;;;;;;;12263553;28;20046;-77
2022/04/01 11:11:23;;;;;;;6.88;6.15;;;;;;;;;;12272919;28;20020;-79
2022/04/01 11:17:29;;;;;;;6.20;4.97;;;;;;;;;;12296997;29;20059;-77
2022/04/01 11:23:32;;;;;;;7.50;6.13;;;;;;;;;;12282191;29;20393;-76
2022/04/01 11:29:34;;;;;;;7.07;6.10;;;;;;;;;;12302216;29;20373;-76
2022/04/01 11:35:39;;;;;;;7.93;7.20;;;;;;;;;;12303544;28;20043;-76
2022/04/01 11:41:48;;;;;;;6.63;5.70;;;;;;;;;;12286064;29;20070;-75
2022/04/01 11:47:49;;;;;;;8.02;6.25;;;;;;;;;;12286060;29;20038;-77
2022/04/01 11:53:52;;;;;;;9.07;8.17;;;;;;;;;;12303379;29;20400;-77
2022/04/01 11:59:54;;;;;;;9.30;8.40;;;;;;;;;;12302545;29;20039;-78
2022/04/01 12:08:41;;;;;;;10.80;9.80;;;;;;;;;;12302110;29;20046;-76
2022/04/01 12:12:22;;;;;;;12.15;9.88;;;;;;;;;;12301789;29;20035;-76
2022/04/01 12:18:30;;;;;;;9.45;8.55;;;;;;;;;;12284305;29;20047;-77
2022/04/01 12:24:33;;;;;;;9.80;8.63;;;;;;;;;;12285766;29;20039;-76
2022/04/01 12:30:55;;;;;;;10.48;8.95;;;;;;;;;;12283911;29;20382;-80
2022/04/01 12:37:06;;;;;;;8.13;7.35;;;;;;;;;;12293978;29;20055;-79
2022/04/01 12:43:08;;;;;;;10.63;9.52;;;;;;;;;;12284421;29;20031;-79
2022/04/01 12:49:12;;;;;;;9.98;9.00;;;;;;;;;;12282931;29;20035;-79
2022/04/01 12:55:22;;;;;;;10.35;9.45;;;;;;;;;;12301615;29;20043;-78
2022/04/01 13:01:26;;;;;;;10.25;9.18;;;;;;;;;;12300233;29;20035;-78
2022/04/01 13:07:28;;;;;;;10.02;8.48;;;;;;;;;;12284009;29;20050;-79
2022/04/01 13:13:34;;;;;;;21.10;15.87;;;;;;;;;;12283047;29;20039;-79
2022/04/01 13:19:37;;;;;;;15.40;13.38;;;;;;;;;;12283174;29;20401;-79
2022/04/01 13:25:39;;;;;;;12.65;10.25;;;;;;;;;;12295987;29;20039;-78
2022/04/01 13:31:41;;;;;;;12.90;11.48;;;;;;;;;;12282906;29;20042;-78
2022/04/01 13:37:43;;;;;;;15.27;13.77;;;;;;;;;;12282722;29;20055;-79
2022/04/01 13:43:46;;;;;;;13.30;12.00;;;;;;;;;;12299624;29;20039;-78
2022/04/01 13:49:48;;;;;;;14.63;13.23;;;;;;;;;;12296391;29;20036;-79
2022/04/01 13:55:50;;;;;;;14.43;13.03;;;;;;;;;;12282336;29;20043;-79
2022/04/01 14:01:51;;;;;;;16.13;14.48;;;;;;;;;;12304119;28;20035;-78
2022/04/01 14:07:53;;;;;;;11.30;10.18;;;;;;;;;;12308548;29;20035;-79
2022/04/01 14:13:57;;;;;;;7.65;6.93;;;;;;;;;;12307949;28;20050;-78
2022/04/01 14:20:00;;;;;;;9.95;8.80;;;;;;;;;;12306986;29;20046;-79
2022/04/01 14:26:04;;;;;;;13.25;12.02;;;;;;;;;;12307800;29;20050;-78
2022/04/01 14:32:06;;;;;;;13.75;12.43;;;;;;;;;;12306652;29;20256;-79
2022/04/01 14:38:08;;;;;;;14.57;13.18;;;;;;;;;;12307091;29;20059;-78
2022/04/01 14:44:11;;;;;;;10.38;9.38;;;;;;;;;;12306067;29;20082;-78
2022/04/01 14:50:13;;;;;;;13.27;11.98;;;;;;;;;;12288699;29;20488;-78
2022/04/01 14:56:15;;;;;;;10.82;9.93;;;;;;;;;;12305440;29;20056;-79
2022/04/01 15:02:18;;;;;;;9.90;8.97;;;;;;;;;;12288487;29;20035;-79
2022/04/01 15:08:20;;;;;;;8.90;8.10;;;;;;;;;;12288168;29;20400;-79
2022/04/01 15:14:22;;;;;;;10.13;9.03;;;;;;;;;;12304362;28;20061;-78
2022/04/01 15:20:23;;;;;;;11.38;9.88;;;;;;;;;;12304425;29;20043;-79
2022/04/01 15:26:25;;;;;;;9.82;8.30;;;;;;;;;;12304104;29;20039;-79
2022/04/01 15:32:27;;;;;;;7.97;6.22;;;;;;;;;;12286479;28;20464;-79
2022/04/01 15:38:33;;;;;;;6.90;6.20;;;;;;;;;;12286414;29;20065;-79
2022/04/01 15:44:34;;;;;;;5.97;5.18;;;;;;;;;;12286018;29;20039;-79
2022/04/01 15:50:38;;;;;;;4.63;4.32;;;;;;;;;;12302996;29;20078;-79
2022/04/01 15:56:40;;;;;;;4.93;4.53;;;;;;;;;;12285661;29;20220;-78
2022/04/01 16:02:44;;;;;;;3.83;3.53;;;;;;;;;;12302423;28;20385;-80
2022/04/01 16:08:56;;;;;;;5.20;4.80;;;;;;;;;;12320119;28;20043;-79
2022/04/01 16:15:00;;;;;;;5.65;4.97;;;;;;;;;;12284935;29;20043;-79
2022/04/01 16:21:02;;;;;;;4.70;4.30;;;;;;;;;;12284647;29;20035;-78
2022/04/01 16:27:04;;;;;;;4.40;4.00;;;;;;;;;;12283508;29;20070;-79
2022/04/01 16:33:09;;;;;;;4.53;3.97;;;;;;;;;;12284968;28;20043;-79
2022/04/01 16:39:11;;;;;;;2.60;2.40;;;;;;;;;;12312651;28;20062;-79
2022/04/01 16:45:12;;;;;;;3.42;3.13;;;;;;;;;;12300062;28;20019;-79
2022/04/01 16:51:14;;;;;;;5.10;4.40;;;;;;;;;;12300828;29;20042;-79
2022/04/01 16:57:16;;;;;;;4.00;3.70;;;;;;;;;;12300667;29;20050;-79
2022/04/01 17:03:18;;;;;;;5.30;4.80;;;;;;;;;;12283554;29;20039;-79
2022/04/01 17:15:40;;;;;;;4.70;4.20;;;;;;;;;;12301972;29;20058;-79
2022/04/01 17:21:42;;;;;;;4.60;4.20;;;;;;;;;;12300303;29;20469;-78
2022/04/01 17:27:44;;;;;;;5.65;5.15;;;;;;;;;;12282602;29;20531;-78
2022/04/01 17:33:46;;;;;;;;;;;;;;;;;;12301227;28;20051;-78
2022/04/01 17:39:49;;;;;;;6.60;5.50;;;;;;;;;;12291991;29;19941;-79
2022/04/01 17:45:51;;;;;;;5.75;5.25;;;;;;;;;;12292414;29;20031;-78
2022/04/01 17:51:52;;;;;;;6.45;5.90;;;;;;;;;;12299057;28;20023;-78
2022/04/01 17:57:55;;;;;;;7.50;6.70;;;;;;;;;;12316659;28;20051;-78
2022/04/01 18:03:57;;;;;;;7.93;7.07;;;;;;;;;;12307997;29;20043;-78
2022/04/01 18:10:02;;;;;;;5.93;5.32;;;;;;;;;;12307588;29;20027;-78
2022/04/01 18:16:07;;;;;;;6.93;6.43;;;;;;;;;;12290149;29;20400;-78
2022/04/01 18:22:09;;;;;;;9.10;8.30;;;;;;;;;;12307237;29;20050;-78
2022/04/01 18:28:11;;;;;;;10.45;9.55;;;;;;;;;;12289702;29;20038;-78
2022/04/01 18:34:14;;;;;;;9.37;8.57;;;;;;;;;;12306750;29;20054;-78
2022/04/01 18:40:16;;;;;;;;;;;;;;;;;;12289653;29;20518;-78
2022/04/01 18:46:18;;;;;;;8.25;7.50;;;;;;;;;;12288054;28;20291;-78
2022/04/01 18:52:20;;;;;;;9.87;9.00;;;;;;;;;;12288619;29;20038;-78
2022/04/01 18:58:22;;;;;;;10.67;9.57;;;;;;;;;;12300471;28;20200;-78
2022/04/01 19:04:30;;;;;;;10.43;9.32;;;;;;;;;;12288382;29;20035;-78
2022/04/01 19:10:37;;;;;;;9.13;8.23;;;;;;;;;;12304844;29;20035;-78
2022/04/01 19:16:43;;;;;;;7.53;6.82;;;;;;;;;;12304474;29;20524;-78
2022/04/01 19:22:47;;;;;;;6.18;5.57;;;;;;;;;;12304029;29;20138;-78
2022/04/01 19:28:48;;;;;;;5.50;5.00;;;;;;;;;;12304204;29;20039;-79
2022/04/01 19:34:50;;;;;;;6.30;5.68;;;;;;;;;;12287503;29;20051;-79
2022/04/01 19:40:52;;;;;;;6.15;5.65;;;;;;;;;;12307205;29;20055;-79
2022/04/01 19:46:54;;;;;;;7.47;6.77;;;;;;;;;;12285914;29;20028;-79
2022/04/01 19:52:56;;;;;;;7.60;6.82;;;;;;;;;;12302985;29;20039;-79
2022/04/01 19:58:58;;;;;;;6.18;5.57;;;;;;;;;;12284861;28;20378;-79
2022/04/01 20:04:59;;;;;;;3.63;3.33;;;;;;;;;;12303875;29;20044;-79
2022/04/01 20:11:01;;;;;;;4.30;2.25;;;;;;;;;;12296419;29;20039;-79
2022/04/01 20:17:03;;;;;;;1.80;1.70;;;;;;;;;;12282664;29;20050;-79
2022/04/01 20:23:05;;;;;;;1.80;1.70;;;;;;;;;;12283913;29;20090;-79
2022/04/01 20:29:07;;;;;;;3.27;1.77;;;;;;;;;;12301180;29;20046;-79
2022/04/01 20:35:09;;;;;;;1.90;1.20;;;;;;;;;;12284875;29;20047;-79
2022/04/01 20:41:11;;;;;;;1.83;1.50;;;;;;;;;;12301744;29;20067;-79
2022/04/01 20:47:13;;;;;;;3.00;1.90;;;;;;;;;;12301144;29;20032;-79
2022/04/01 20:53:14;;;;;;;3.65;1.85;;;;;;;;;;12300902;29;20031;-79
2022/04/01 20:59:18;;;;;;;2.13;1.92;;;;;;;;;;12301094;29;20058;-79
2022/04/01 21:05:20;;;;;;;2.38;2.17;;;;;;;;;;12301439;29;20046;-78
2022/04/01 21:11:22;;;;;;;1.60;1.50;;;;;;;;;;12313851;28;20030;-78
2022/04/01 21:17:24;;;;;;;3.17;2.10;;;;;;;;;;12315811;29;20042;-79
2022/04/01 21:23:26;;;;;;;2.27;1.97;;;;;;;;;;12310020;29;20039;-79
2022/04/01 21:29:28;;;;;;;1.77;1.30;;;;;;;;;;12292539;29;20027;-79
2022/04/01 21:35:29;;;;;;;1.80;1.38;;;;;;;;;;12300117;28;20047;-78
2022/04/01 21:41:31;;;;;;;1.17;0.98;;;;;;;;;;12317561;28;20382;-79
2022/04/01 21:47:33;;;;;;;1.05;0.95;;;;;;;;;;12291878;29;20046;-79
2022/04/01 21:53:35;;;;;;;1.95;1.10;;;;;;;;;;12291490;29;20039;-79
2022/04/01 21:59:37;;;;;;;1.58;1.00;;;;;;;;;;12308274;29;20039;-79
2022/04/01 22:05:40;;;;;;;1.05;0.95;;;;;;;;;;12308531;29;20039;-79
2022/04/01 22:11:43;;;;;;;1.02;0.98;;;;;;;;;;12290712;29;20039;-79
2022/04/01 22:17:44;;;;;;;1.00;1.00;;;;;;;;;;12307601;29;20515;-79
2022/04/01 22:23:46;;;;;;;0.80;0.80;;;;;;;;;;12307139;28;20043;-79
2022/04/01 22:29:48;;;;;;;0.80;0.80;;;;;;;;;;12307378;29;20031;-79
2022/04/01 22:35:50;;;;;;;1.10;0.80;;;;;;;;;;12303484;28;20062;-79
2022/04/01 22:41:52;;;;;;;0.80;0.80;;;;;;;;;;12306507;29;20484;-79
2022/04/01 22:47:54;;;;;;;1.10;1.02;;;;;;;;;;12289420;29;20047;-78
2022/04/01 22:53:56;;;;;;;1.27;1.17;;;;;;;;;;12288685;29;20038;-79
2022/04/01 22:59:58;;;;;;;1.20;1.10;;;;;;;;;;12288649;29;20035;-79
2022/04/01 23:06:00;;;;;;;1.20;1.10;;;;;;;;;;12289033;29;20039;-79
2022/04/01 23:12:01;;;;;;;0.90;0.90;;;;;;;;;;12305089;29;20039;-79
2022/04/01 23:18:03;;;;;;;0.85;0.85;;;;;;;;;;12287778;29;20429;-78
2022/04/01 23:24:05;;;;;;;1.33;1.17;;;;;;;;;;12304491;29;20039;-79
2022/04/01 23:30:07;;;;;;;1.30;1.20;;;;;;;;;;12287059;29;20035;-79
2022/04/01 23:36:09;;;;;;;0.90;0.90;;;;;;;;;;12286812;29;20420;-78
2022/04/01 23:42:11;;;;;;;1.10;1.10;;;;;;;;;;12286614;29;20031;-79
2022/04/01 23:48:13;;;;;;;1.48;1.20;;;;;;;;;;12287309;29;20039;-79
2022/04/01 23:54:15;;;;;;;1.83;1.50;;;;;;;;;;12283689;29;20039;-79
